createdAt,value
2023-03-05T00:00:09.751Z,45.68
2023-03-05T00:02:13.354Z,45.53
2023-03-05T00:04:16.840Z,45.51
2023-03-05T00:06:21.423Z,45.54
2023-03-05T00:08:24.227Z,45.66
2023-03-05T00:10:27.057Z,45.64
2023-03-05T00:12:38.677Z,45.50
2023-03-05T00:14:41.886Z,45.27
2023-03-05T00:16:44.665Z,45.40
2023-03-05T00:18:48.059Z,45.50
2023-03-05T00:20:51.045Z,45.52
2023-03-05T00:22:55.245Z,45.54
2023-03-05T00:24:58.258Z,45.56
2023-03-05T00:27:01.078Z,45.28
2023-03-05T00:29:03.991Z,45.23
2023-03-05T00:31:06.968Z,45.43
2023-03-05T00:33:12.783Z,45.35
2023-03-05T00:35:15.602Z,45.42
2023-03-05T00:37:18.694Z,45.43
2023-03-05T00:39:23.433Z,45.55
2023-03-05T00:41:26.567Z,45.23
2023-03-05T00:43:29.485Z,45.37
2023-03-05T00:45:32.887Z,45.35
2023-03-05T00:47:36.460Z,45.52
2023-03-05T00:49:39.450Z,45.28
2023-03-05T00:51:42.436Z,45.63
2023-03-05T00:53:45.423Z,45.50
2023-03-05T00:55:49.682Z,45.27
2023-03-05T00:57:52.532Z,45.27
2023-03-05T00:59:55.399Z,45.37
2023-03-05T01:01:58.456Z,45.40
2023-03-05T01:04:01.483Z,45.27
2023-03-05T01:06:07.922Z,45.29
2023-03-05T01:08:10.809Z,45.17
2023-03-05T01:10:14.148Z,45.21
2023-03-05T01:12:18.344Z,45.41
2023-03-05T01:14:21.806Z,45.20
2023-03-05T01:16:24.831Z,45.15
2023-03-05T01:18:27.691Z,45.36
2023-03-05T01:20:30.728Z,45.01
2023-03-05T01:22:33.510Z,45.14
2023-03-05T01:24:36.286Z,45.11
2023-03-05T01:26:39.296Z,45.34
2023-03-05T01:28:43.446Z,45.12
2023-03-05T01:30:46.281Z,45.15
2023-03-05T01:32:49.123Z,45.23
2023-03-05T01:34:51.900Z,45.03
2023-03-05T01:36:54.726Z,45.33
2023-03-05T01:38:57.866Z,44.97
2023-03-05T01:41:00.645Z,45.14
2023-03-05T01:43:22.674Z,44.97
2023-03-05T01:45:27.285Z,45.35
2023-03-05T01:47:30.803Z,45.21
2023-03-05T01:49:37.386Z,45.17
2023-03-05T01:51:45.890Z,45.47
2023-03-05T01:53:49.038Z,44.99
2023-03-05T01:55:51.830Z,45.07
2023-03-05T01:57:56.941Z,44.99
2023-03-05T02:00:03.929Z,45.15
2023-03-05T02:02:08.987Z,45.06
2023-03-05T02:04:15.712Z,45.23
2023-03-05T02:06:18.607Z,45.11
2023-03-05T02:08:23.423Z,45.18
2023-03-05T02:10:28.882Z,44.98
2023-03-05T02:12:31.994Z,44.76
2023-03-05T02:14:35.088Z,44.92
2023-03-05T02:16:39.248Z,44.81
2023-03-05T02:18:43.493Z,45.01
2023-03-05T02:20:48.255Z,44.97
2023-03-05T02:22:52.565Z,45.12
2023-03-05T02:24:55.463Z,45.01
2023-03-05T02:26:58.945Z,44.92
2023-03-05T02:29:04.194Z,44.95
2023-03-05T02:31:10.998Z,44.81
2023-03-05T02:33:15.861Z,45.00
2023-03-05T02:35:18.978Z,44.73
2023-03-05T02:37:21.791Z,44.96
2023-03-05T02:39:26.096Z,44.94
2023-03-05T02:41:29.107Z,45.17
2023-03-05T02:43:32.207Z,45.11
2023-03-05T02:45:35.056Z,44.90
2023-03-05T02:47:38.254Z,44.92
2023-03-05T02:49:41.168Z,44.91
2023-03-05T02:51:44.122Z,45.00
2023-03-05T02:53:47.017Z,45.11
2023-03-05T02:55:51.562Z,44.81
2023-03-05T02:57:54.524Z,44.93
2023-03-05T02:59:57.339Z,45.04
2023-03-05T03:02:00.271Z,45.12
2023-03-05T03:04:03.282Z,45.05
2023-03-05T03:06:07.052Z,44.99
2023-03-05T03:08:10.385Z,45.05
2023-03-05T03:10:13.758Z,45.13
2023-03-05T03:12:18.066Z,44.80
2023-03-05T03:14:21.305Z,44.85
2023-03-05T03:16:24.284Z,44.82
2023-03-05T03:18:26.204Z,44.73
2023-03-05T03:20:29.028Z,45.02
2023-03-05T03:22:31.925Z,44.81
2023-03-05T03:24:36.570Z,44.87
2023-03-05T03:26:39.489Z,45.00
2023-03-05T03:28:43.846Z,44.68
2023-03-05T03:30:46.681Z,44.70
2023-03-05T03:32:49.525Z,45.00
2023-03-05T03:34:52.116Z,44.62
2023-03-05T03:36:55.391Z,44.61
2023-03-05T03:38:58.295Z,44.84
2023-03-05T03:41:01.127Z,44.68
2023-03-05T03:43:04.142Z,45.13
2023-03-05T03:45:09.692Z,44.84
2023-03-05T03:47:12.470Z,44.99
2023-03-05T03:49:17.894Z,44.66
2023-03-05T03:51:20.997Z,45.04
2023-03-05T03:53:23.773Z,44.86
2023-03-05T03:55:26.704Z,44.99
2023-03-05T03:57:30.733Z,45.08
2023-03-05T03:59:33.546Z,45.11
2023-03-05T04:01:38.060Z,45.22
2023-03-05T04:03:40.943Z,45.09
2023-03-05T04:05:43.825Z,45.26
2023-03-05T04:07:46.702Z,45.23
2023-03-05T04:09:49.486Z,45.07
2023-03-05T04:11:52.286Z,45.35
2023-03-05T04:13:55.144Z,45.47
2023-03-05T04:15:58.300Z,45.40
2023-03-05T04:18:02.649Z,45.40
2023-03-05T04:20:07.266Z,45.28
2023-03-05T04:22:12.065Z,45.51
2023-03-05T04:24:15.236Z,45.46
2023-03-05T04:26:18.154Z,45.44
2023-03-05T04:28:20.939Z,45.62
2023-03-05T04:30:23.713Z,45.73
2023-03-05T04:32:28.512Z,45.69
2023-03-05T04:34:32.871Z,45.47
2023-03-05T04:36:37.007Z,45.63
2023-03-05T04:38:39.808Z,45.85
2023-03-05T04:40:42.596Z,45.65
2023-03-05T04:42:45.892Z,45.64
2023-03-05T04:44:48.964Z,45.70
2023-03-05T04:46:52.061Z,45.77
2023-03-05T04:48:55.121Z,45.81
2023-03-05T04:50:59.240Z,45.91
2023-03-05T04:53:02.190Z,45.68
2023-03-05T04:55:05.197Z,45.80
2023-03-05T04:57:09.139Z,45.54
2023-03-05T04:59:12.090Z,45.76
2023-03-05T05:01:14.940Z,45.60
2023-03-05T05:03:17.745Z,45.53
2023-03-05T05:05:22.408Z,45.79
2023-03-05T05:07:26.625Z,45.85
2023-03-05T05:09:29.433Z,45.80
2023-03-05T05:11:32.293Z,45.85
2023-03-05T05:13:36.062Z,46.00
2023-03-05T05:15:41.353Z,46.04
2023-03-05T05:17:44.299Z,46.06
2023-03-05T05:19:47.202Z,46.00
2023-03-05T05:21:50.186Z,46.16
2023-03-05T05:23:54.529Z,46.01
2023-03-05T05:25:58.667Z,46.11
2023-03-05T05:28:01.514Z,46.26
2023-03-05T05:30:06.072Z,46.05
2023-03-05T05:32:09.094Z,45.97
2023-03-05T05:34:12.161Z,46.11
2023-03-05T05:36:19.048Z,46.22
2023-03-05T05:38:22.778Z,46.03
2023-03-05T05:40:26.972Z,46.30
2023-03-05T05:42:30.142Z,46.11
2023-03-05T05:44:34.863Z,46.46
2023-03-05T05:46:38.143Z,46.15
2023-03-05T05:48:41.510Z,46.45
2023-03-05T05:50:44.324Z,46.56
2023-03-05T05:52:47.131Z,46.35
2023-03-05T05:54:50.227Z,46.34
2023-03-05T05:56:54.425Z,46.42
2023-03-05T05:58:57.275Z,46.46
2023-03-05T06:01:00.599Z,46.69
2023-03-05T06:03:04.124Z,46.44
2023-03-05T06:05:08.386Z,46.59
2023-03-05T06:07:11.277Z,46.54
2023-03-05T06:09:14.676Z,46.67
2023-03-05T06:11:19.406Z,46.48
2023-03-05T06:13:23.803Z,46.60
2023-03-05T06:15:26.624Z,46.75
2023-03-05T06:17:31.091Z,46.68
2023-03-05T06:19:34.113Z,46.62
2023-03-05T06:21:37.138Z,46.73
2023-03-05T06:23:40.297Z,46.68
2023-03-05T06:25:43.210Z,46.81
2023-03-05T06:27:46.060Z,46.98
2023-03-05T06:29:53.554Z,46.87
2023-03-05T06:31:56.419Z,46.90
2023-03-05T06:34:02.375Z,46.85
2023-03-05T06:36:06.485Z,46.85
2023-03-05T06:38:10.296Z,47.00
2023-03-05T06:40:14.352Z,47.01
2023-03-05T06:42:19.237Z,46.97
2023-03-05T06:44:22.034Z,46.89
2023-03-05T06:46:28.763Z,46.90
2023-03-05T06:48:31.626Z,46.81
2023-03-05T06:50:35.789Z,46.90
2023-03-05T06:52:40.960Z,47.09
2023-03-05T06:54:43.754Z,46.88
2023-03-05T06:56:48.143Z,46.90
2023-03-05T06:58:53.142Z,46.96
2023-03-05T07:00:55.973Z,46.90
2023-03-05T07:03:00.276Z,46.74
2023-03-05T07:05:03.273Z,46.85
2023-03-05T07:07:06.193Z,47.02
2023-03-05T07:09:12.450Z,46.84
2023-03-05T07:11:17.222Z,46.83
2023-03-05T07:13:20.002Z,46.62
2023-03-05T07:15:22.879Z,46.61
2023-03-05T07:17:25.780Z,46.73
2023-03-05T07:19:30.088Z,46.99
2023-03-05T07:21:36.049Z,46.81
2023-03-05T07:23:40.366Z,46.94
2023-03-05T07:25:43.262Z,46.99
2023-03-05T07:27:45.980Z,47.06
2023-03-05T07:29:48.789Z,47.12
2023-03-05T07:31:51.663Z,46.80
2023-03-05T07:33:54.441Z,46.90
2023-03-05T07:35:58.797Z,46.90
2023-03-05T07:38:01.684Z,46.65
2023-03-05T07:40:05.930Z,46.76
2023-03-05T07:42:08.933Z,46.92
2023-03-05T07:44:11.711Z,46.86
2023-03-05T07:46:17.507Z,47.17
2023-03-05T07:48:21.598Z,47.05
2023-03-05T07:50:24.962Z,47.20
2023-03-05T07:52:29.066Z,46.98
2023-03-05T07:54:31.827Z,46.72
2023-03-05T07:56:36.450Z,46.86
2023-03-05T07:58:39.257Z,46.80
2023-03-05T08:00:42.417Z,46.91
2023-03-05T08:02:46.070Z,46.88
2023-03-05T08:04:49.033Z,46.85
2023-03-05T08:06:52.180Z,46.99
2023-03-05T08:08:56.627Z,47.01
2023-03-05T08:11:04.577Z,47.23
2023-03-05T08:13:07.938Z,47.25
2023-03-05T08:15:11.723Z,46.97
2023-03-05T08:17:14.422Z,47.13
2023-03-05T08:19:17.245Z,47.33
2023-03-05T08:21:22.102Z,47.06
2023-03-05T08:23:24.849Z,47.30
2023-03-05T08:25:29.482Z,46.84
2023-03-05T08:27:32.418Z,47.18
2023-03-05T08:29:35.401Z,46.88
2023-03-05T08:31:38.769Z,46.92
2023-03-05T08:33:41.716Z,47.01
2023-03-05T08:35:44.606Z,47.03
2023-03-05T08:37:47.546Z,47.11
2023-03-05T08:39:50.457Z,47.02
2023-03-05T08:41:54.792Z,46.68
2023-03-05T08:43:57.780Z,47.15
2023-03-05T08:46:01.450Z,47.17
2023-03-05T08:48:04.330Z,47.18
2023-03-05T08:50:08.009Z,47.07
2023-03-05T08:52:11.040Z,46.97
2023-03-05T08:54:13.972Z,47.05
2023-03-05T08:56:16.926Z,47.03
2023-03-05T08:58:21.092Z,46.98
2023-03-05T09:00:24.415Z,47.21
2023-03-05T09:02:27.265Z,47.05
2023-03-05T09:04:30.073Z,47.32
2023-03-05T09:06:34.383Z,47.33
2023-03-05T09:08:38.013Z,47.33
2023-03-05T09:10:42.448Z,46.98
2023-03-05T09:12:45.437Z,46.99
2023-03-05T09:14:49.782Z,46.98
2023-03-05T09:16:52.580Z,46.90
2023-03-05T09:18:55.531Z,47.01
2023-03-05T09:20:58.804Z,47.12
2023-03-05T09:23:01.606Z,47.14
2023-03-05T09:25:04.538Z,47.16
2023-03-05T09:27:07.299Z,47.02
2023-03-05T09:29:10.791Z,47.24
2023-03-05T09:31:15.182Z,47.33
2023-03-05T09:33:17.974Z,46.92
2023-03-05T09:35:20.799Z,47.02
2023-03-05T09:37:23.741Z,47.09
2023-03-05T09:39:26.945Z,47.09
2023-03-05T09:41:37.220Z,47.21
2023-03-05T09:43:50.415Z,47.50
2023-03-05T09:46:05.513Z,47.06
2023-03-05T09:48:18.122Z,47.06
2023-03-05T09:50:36.204Z,47.23
2023-03-05T09:52:44.910Z,47.32
2023-03-05T09:54:53.593Z,47.25
2023-03-05T09:56:59.417Z,47.08
2023-03-05T09:59:06.608Z,47.46
2023-03-05T10:01:12.458Z,46.91
2023-03-05T10:03:22.595Z,46.96
2023-03-05T10:05:33.778Z,47.19
2023-03-05T10:07:41.176Z,47.10
2023-03-05T10:09:49.879Z,47.30
2023-03-05T10:11:58.048Z,47.06
2023-03-05T10:14:00.857Z,46.92
2023-03-05T10:16:19.187Z,47.13
2023-03-05T10:18:34.069Z,47.15
2023-03-05T10:20:48.986Z,47.35
2023-03-05T10:23:16.589Z,47.04
2023-03-05T10:25:25.015Z,46.96
2023-03-05T10:27:41.331Z,47.07
2023-03-05T10:30:02.515Z,47.06
2023-03-05T10:32:17.127Z,47.38
2023-03-05T10:34:51.604Z,47.03
2023-03-05T10:37:13.369Z,47.24
2023-03-05T10:39:37.649Z,47.10
2023-03-05T10:41:49.301Z,47.13
2023-03-05T10:43:59.515Z,47.23
2023-03-05T10:46:04.533Z,47.15
2023-03-05T10:48:16.030Z,47.18
2023-03-05T10:50:23.626Z,47.20
2023-03-05T10:52:32.628Z,47.13
2023-03-05T10:54:36.053Z,47.42
2023-03-05T10:56:39.085Z,47.37
2023-03-05T10:58:42.106Z,47.32
2023-03-05T11:00:59.708Z,47.12
2023-03-05T11:03:05.883Z,47.30
2023-03-05T11:05:45.456Z,47.48
2023-03-05T11:07:49.611Z,47.95
2023-03-05T11:10:05.044Z,47.78
2023-03-05T11:12:16.928Z,47.89
2023-03-05T11:14:31.322Z,47.75
2023-03-05T11:16:36.457Z,47.49
2023-03-05T11:18:39.226Z,47.82
2023-03-05T11:20:42.322Z,47.76
2023-03-05T11:23:05.329Z,47.74
2023-03-05T11:25:18.714Z,47.47
2023-03-05T11:27:32.638Z,47.83
2023-03-05T11:29:36.139Z,47.46
2023-03-05T11:31:38.925Z,47.98
2023-03-05T11:33:56.364Z,47.82
2023-03-05T11:36:24.374Z,47.84
2023-03-05T11:38:29.505Z,47.85
2023-03-05T11:40:35.600Z,47.88
2023-03-05T11:42:41.276Z,47.88
2023-03-05T11:44:49.142Z,48.04
2023-03-05T11:46:55.533Z,48.19
2023-03-05T11:48:59.769Z,47.93
2023-03-05T11:51:08.644Z,47.94
2023-03-05T11:53:16.264Z,48.06
2023-03-05T11:55:22.619Z,48.06
2023-03-05T11:57:26.876Z,48.12
2023-03-05T11:59:34.768Z,47.91
2023-03-05T12:01:43.658Z,47.74
2023-03-05T12:03:46.681Z,47.95
2023-03-05T12:05:54.104Z,47.81
2023-03-05T12:08:02.160Z,47.84
2023-03-05T12:10:06.140Z,47.81
2023-03-05T12:12:26.206Z,47.97
2023-03-05T12:14:37.546Z,48.18
2023-03-05T12:16:43.185Z,48.27
2023-03-05T12:18:53.097Z,48.13
2023-03-05T12:21:07.060Z,48.22
2023-03-05T12:23:14.652Z,47.98
2023-03-05T12:25:29.562Z,47.89
2023-03-05T12:27:40.018Z,48.08
2023-03-05T12:29:46.121Z,48.05
2023-03-05T12:31:49.190Z,48.19
2023-03-05T12:33:52.340Z,48.22
2023-03-05T12:35:55.181Z,48.25
2023-03-05T12:38:17.210Z,47.99
2023-03-05T12:40:28.549Z,48.04
2023-03-05T12:42:54.726Z,48.01
2023-03-05T12:45:39.617Z,48.26
2023-03-05T12:47:43.331Z,48.37
2023-03-05T12:49:48.563Z,48.56
2023-03-05T12:51:53.568Z,48.48
2023-03-05T12:53:56.951Z,48.21
2023-03-05T12:56:03.897Z,48.54
2023-03-05T12:58:14.400Z,48.36
2023-03-05T13:00:22.689Z,48.49
2023-03-05T13:02:32.750Z,48.45
2023-03-05T13:04:45.507Z,48.45
2023-03-05T13:06:58.364Z,48.54
2023-03-05T13:09:03.357Z,48.43
2023-03-05T13:11:09.533Z,48.28
2023-03-05T13:13:16.572Z,48.41
2023-03-05T13:15:19.398Z,48.68
2023-03-05T13:17:34.756Z,48.32
2023-03-05T13:19:37.676Z,48.27
2023-03-05T13:21:40.529Z,48.39
2023-03-05T13:23:57.743Z,48.48
2023-03-05T13:26:03.061Z,48.64
2023-03-05T13:28:11.010Z,48.58
2023-03-05T13:30:34.682Z,48.57
2023-03-05T13:32:37.807Z,48.49
2023-03-05T13:34:48.134Z,48.74
2023-03-05T13:36:57.215Z,48.73
2023-03-05T13:39:00.510Z,48.71
2023-03-05T13:41:06.154Z,48.58
2023-03-05T13:43:13.636Z,48.56
2023-03-05T13:45:25.543Z,48.61
2023-03-05T13:47:32.205Z,48.63
2023-03-05T13:49:35.333Z,48.48
2023-03-05T13:51:46.592Z,48.66
2023-03-05T13:53:50.499Z,48.75
2023-03-05T13:55:56.347Z,48.60
2023-03-05T13:57:59.111Z,48.77
2023-03-05T14:00:03.387Z,48.89
2023-03-05T14:02:18.395Z,48.57
2023-03-05T14:04:25.335Z,48.86
2023-03-05T14:06:30.782Z,48.85
2023-03-05T14:08:34.243Z,48.87
2023-03-05T14:10:39.009Z,48.52
2023-03-05T14:12:43.595Z,48.58
2023-03-05T14:14:46.959Z,48.96
2023-03-05T14:16:50.120Z,48.79
2023-03-05T14:18:57.820Z,48.70
2023-03-05T14:21:07.598Z,48.63
2023-03-05T14:23:27.319Z,48.71
2023-03-05T14:25:34.915Z,48.80
2023-03-05T14:27:38.054Z,48.49
2023-03-05T14:29:46.371Z,48.49
2023-03-05T14:31:52.729Z,48.41
2023-03-05T14:34:01.926Z,48.68
2023-03-05T14:36:06.789Z,48.26
2023-03-05T14:38:24.217Z,48.56
2023-03-05T14:40:32.136Z,48.49
2023-03-05T14:42:38.720Z,48.62
2023-03-05T14:44:43.502Z,48.57
2023-03-05T14:46:50.624Z,48.32
2023-03-05T14:48:54.282Z,48.34
2023-03-05T14:50:58.189Z,48.36
2023-03-05T14:53:04.935Z,48.51
2023-03-05T14:55:08.380Z,48.51
2023-03-05T14:57:17.590Z,48.11
2023-03-05T14:59:22.098Z,48.53
2023-03-05T15:01:25.394Z,48.42
2023-03-05T15:03:28.526Z,48.29
2023-03-05T15:05:31.737Z,48.23
2023-03-05T15:07:34.887Z,48.24
2023-03-05T15:09:39.069Z,48.25
2023-03-05T15:11:41.873Z,48.16
2023-03-05T15:13:44.817Z,48.45
2023-03-05T15:15:53.494Z,47.97
2023-03-05T15:17:57.435Z,48.08
2023-03-05T15:20:00.674Z,47.79
2023-03-05T15:22:03.510Z,48.01
2023-03-05T15:24:06.840Z,47.93
2023-03-05T15:26:15.268Z,47.85
2023-03-05T15:28:18.349Z,47.61
2023-03-05T15:30:24.224Z,47.98
2023-03-05T15:32:28.883Z,47.67
2023-03-05T15:34:33.637Z,47.59
2023-03-05T15:36:36.413Z,47.92
2023-03-05T15:38:41.516Z,47.75
2023-03-05T15:40:45.929Z,47.54
2023-03-05T15:42:50.422Z,47.43
2023-03-05T15:44:53.166Z,47.73
2023-03-05T15:46:56.789Z,47.55
2023-03-05T15:48:59.982Z,47.49
2023-03-05T15:51:02.921Z,47.58
2023-03-05T15:53:05.665Z,47.63
2023-03-05T15:55:09.805Z,47.48
2023-03-05T15:57:13.880Z,47.35
2023-03-05T15:59:18.100Z,47.20
2023-03-05T16:01:22.299Z,47.35
2023-03-05T16:03:25.189Z,47.65
2023-03-05T16:05:28.019Z,47.41
2023-03-05T16:07:32.926Z,47.71
2023-03-05T16:09:39.652Z,47.56
2023-03-05T16:11:47.779Z,47.18
2023-03-05T16:13:51.461Z,47.37
2023-03-05T16:15:56.578Z,47.36
2023-03-05T16:18:01.859Z,47.12
2023-03-05T16:20:06.784Z,47.23
2023-03-05T16:22:09.830Z,47.06
2023-03-05T16:24:13.252Z,47.08
2023-03-05T16:26:16.216Z,47.12
2023-03-05T16:28:19.235Z,47.33
2023-03-05T16:30:22.472Z,47.30
2023-03-05T16:32:27.011Z,47.29
2023-03-05T16:34:29.812Z,47.12
2023-03-05T16:36:35.347Z,47.33
2023-03-05T16:38:38.194Z,47.26
2023-03-05T16:41:05.856Z,47.44
2023-03-05T16:43:03.692Z,47.64
2023-03-05T16:45:08.109Z,47.62
2023-03-05T16:47:12.562Z,47.35
2023-03-05T16:49:17.766Z,47.33
2023-03-05T16:51:21.189Z,47.77
2023-03-05T16:53:23.979Z,47.78
2023-03-05T16:55:26.747Z,47.80
2023-03-05T16:57:29.827Z,47.51
2023-03-05T16:59:32.580Z,47.67
2023-03-05T17:01:35.389Z,47.58
2023-03-05T17:03:41.272Z,47.75
2023-03-05T17:05:45.413Z,47.72
2023-03-05T17:07:48.327Z,47.76
2023-03-05T17:09:52.767Z,47.55
2023-03-05T17:11:55.992Z,47.76
2023-03-05T17:13:58.833Z,47.95
2023-03-05T17:16:01.814Z,47.72
2023-03-05T17:18:05.519Z,48.00
2023-03-05T17:20:10.159Z,47.99
2023-03-05T17:22:16.030Z,47.96
2023-03-05T17:24:21.554Z,48.05
2023-03-05T17:26:25.948Z,47.76
2023-03-05T17:28:28.861Z,48.14
2023-03-05T17:30:33.310Z,48.05
2023-03-05T17:32:36.354Z,48.27
2023-03-05T17:34:39.866Z,48.35
2023-03-05T17:36:42.686Z,48.26
2023-03-05T17:38:53.170Z,48.62
2023-03-05T17:40:56.440Z,48.35
2023-03-05T17:42:59.832Z,48.49
2023-03-05T17:45:04.515Z,48.71
2023-03-05T17:47:07.368Z,48.78
2023-03-05T17:49:10.107Z,48.96
2023-03-05T17:51:14.775Z,48.79
2023-03-05T17:53:17.676Z,48.62
2023-03-05T17:55:24.586Z,48.72
2023-03-05T17:57:27.808Z,48.81
2023-03-05T17:59:30.589Z,48.96
2023-03-05T18:01:34.832Z,49.04
2023-03-05T18:03:38.502Z,48.97
2023-03-05T18:05:41.918Z,49.37
2023-03-05T18:07:44.837Z,49.03
2023-03-05T18:09:47.685Z,49.31
2023-03-05T18:11:52.956Z,49.41
2023-03-05T18:13:57.923Z,49.26
2023-03-05T18:16:01.624Z,49.63
2023-03-05T18:18:04.709Z,49.50
2023-03-05T18:20:09.469Z,49.39
2023-03-05T18:22:12.180Z,49.31
2023-03-05T18:24:14.963Z,49.86
2023-03-05T18:26:18.572Z,49.62
2023-03-05T18:28:22.843Z,49.75
2023-03-05T18:30:25.918Z,49.92
2023-03-05T18:32:29.596Z,49.81
2023-03-05T18:34:32.533Z,49.70
2023-03-05T18:36:35.902Z,49.85
2023-03-05T18:38:39.276Z,49.82
2023-03-05T18:40:43.751Z,50.06
2023-03-05T18:42:46.603Z,50.32
2023-03-05T18:44:50.722Z,50.20
2023-03-05T18:46:53.741Z,50.44
2023-03-05T18:48:56.585Z,50.25
2023-03-05T18:51:01.781Z,50.43
2023-03-05T18:53:05.004Z,50.56
2023-03-05T18:55:15.261Z,50.33
2023-03-05T18:57:18.479Z,50.41
2023-03-05T18:59:21.777Z,50.53
2023-03-05T19:01:26.176Z,50.56
2023-03-05T19:03:29.132Z,50.85
2023-03-05T19:05:32.176Z,50.54
2023-03-05T19:07:35.410Z,50.69
2023-03-05T19:09:52.126Z,50.60
2023-03-05T19:11:54.895Z,50.91
2023-03-05T19:13:58.517Z,50.75
2023-03-05T19:16:02.411Z,50.76
2023-03-05T19:18:06.845Z,51.04
2023-03-05T19:20:13.381Z,50.86
2023-03-05T19:22:16.579Z,51.29
2023-03-05T19:24:20.158Z,51.30
2023-03-05T19:26:23.125Z,51.30
2023-03-05T19:28:27.673Z,51.17
2023-03-05T19:30:30.465Z,51.50
2023-03-05T19:32:33.539Z,51.59
2023-03-05T19:34:38.095Z,51.72
2023-03-05T19:36:40.862Z,51.64
2023-03-05T19:38:43.996Z,51.92
2023-03-05T19:40:47.747Z,51.89
2023-03-05T19:42:50.744Z,51.60
2023-03-05T19:44:53.590Z,51.86
2023-03-05T19:46:56.352Z,51.82
2023-03-05T19:48:59.848Z,52.03
2023-03-05T19:51:04.453Z,52.11
2023-03-05T19:53:07.387Z,52.15
2023-03-05T19:55:11.377Z,51.85
2023-03-05T19:57:15.006Z,51.98
2023-03-05T19:59:21.011Z,52.20
2023-03-05T20:01:26.258Z,52.33
2023-03-05T20:03:29.130Z,52.23
2023-03-05T20:05:31.905Z,52.09
2023-03-05T20:07:36.177Z,52.38
2023-03-05T20:09:39.176Z,52.15
2023-03-05T20:11:42.353Z,52.49
2023-03-05T20:13:45.353Z,52.27
2023-03-05T20:15:48.375Z,52.27
2023-03-05T20:17:53.698Z,52.55
2023-03-05T20:19:58.989Z,52.26
2023-03-05T20:22:02.271Z,52.37
2023-03-05T20:24:09.998Z,52.52
2023-03-05T20:26:13.024Z,52.28
2023-03-05T20:28:16.555Z,52.34
2023-03-05T20:30:19.831Z,52.54
2023-03-05T20:32:24.107Z,52.77
2023-03-05T20:34:27.173Z,52.59
2023-03-05T20:36:30.223Z,52.70
2023-03-05T20:38:33.380Z,52.93
2023-03-05T20:40:37.873Z,52.44
2023-03-05T20:42:40.707Z,52.66
2023-03-05T20:44:44.890Z,52.83
2023-03-05T20:46:59.553Z,52.66
2023-03-05T20:49:04.194Z,52.73
2023-03-05T20:51:14.823Z,52.87
2023-03-05T20:53:18.100Z,52.57
2023-03-05T20:55:21.186Z,52.59
2023-03-05T20:57:26.301Z,52.81
2023-03-05T20:59:29.127Z,52.88
2023-03-05T21:01:33.850Z,52.73
2023-03-05T21:03:38.748Z,52.88
2023-03-05T21:05:41.599Z,52.88
2023-03-05T21:07:45.450Z,53.04
2023-03-05T21:09:48.453Z,52.70
2023-03-05T21:11:51.607Z,52.99
2023-03-05T21:13:56.292Z,52.83
2023-03-05T21:15:59.056Z,52.97
2023-03-05T21:18:02.045Z,52.91
2023-03-05T21:20:05.917Z,52.62
2023-03-05T21:22:08.916Z,52.73
2023-03-05T21:24:11.890Z,52.89
2023-03-05T21:26:14.739Z,52.74
2023-03-05T21:28:18.636Z,52.88
2023-03-05T21:30:24.001Z,52.64
2023-03-05T21:32:27.601Z,52.60
2023-03-05T21:34:30.742Z,52.50
2023-03-05T21:36:33.838Z,52.53
2023-03-05T21:38:37.268Z,52.52
2023-03-05T21:40:43.555Z,52.67
2023-03-05T21:42:47.999Z,52.57
2023-03-05T21:44:50.862Z,52.59
2023-03-05T21:46:55.012Z,52.43
2023-03-05T21:48:57.996Z,52.63
2023-03-05T21:51:00.987Z,52.46
2023-03-05T21:53:03.967Z,52.46
2023-03-05T21:55:07.706Z,52.59
2023-03-05T21:57:12.058Z,52.56
2023-03-05T21:59:14.960Z,52.46
2023-03-05T22:01:20.860Z,52.46
2023-03-05T22:03:25.544Z,52.41
2023-03-05T22:05:28.608Z,52.71
2023-03-05T22:07:31.612Z,52.45
